Aeroporto :
LOGIN :

Iscrizione | Disclaimer

   EN    FR    IT 

 










Sommario :    VFR   VFR Marginale   IFR   IFR Intensivo   IFR Molto Intensivo
Visibilità : 
Base nubi : 
>= 8 km
>= 3000ft
5 / 8 km
1000 / 3000 ft
1500m / 5 km
500 / 1000 ft
800 / 1500m
200 / 500 ft
< 800m
< 200 ft
Simboli :   Temporali  Nebbia  Neve Forte  Precipitazioni Forti  Vento > 20 kt
SIGMETs :   Varie  Temporali  Ghiacco  Turbolenza  Onda orograficha  Ceneri Vulcaniche






- Altitudine del aeroporto : 78 ft
- Codice IATA : LED


ULLI - Pulkovo

ULTIMO METAR :
  • 291230Z 29008MPS 9999 SCT040 00/M07 Q1000 R28L/290047 R28R/810250 NOSIG

METARs OBSOLETI :
  • 291200Z 26007MPS 220V280 9999 BKN036 01/M08 Q1000 R28L/290047 R28R/810250 NOSIG
  • 291130Z 27006MPS 9999 BKN036 00/M07 Q1000 R28L/290047 R28R/810250 NOSIG
  • 291100Z 27007MPS 9999 SCT033 M00/M08 Q1000 R28L/290047 R28R/810250 NOSIG
  • 291030Z 28007MPS 9999 FEW023 M00/M09 Q1000 R28L/520545 R28R/810250 NOSIG
  • 291000Z 29005MPS 9999 FEW023 M01/M08 Q1000 R28L/520545 R28R/810250 NOSIG

TAF TAF ULLI
Valido dal 29 a 12 ore il 01 a 12 ore UTC


291055Z 2912/0112 28005G10MPS 9999 SCT025
BECMG 2916/2918 22003G08MPS SCT011 BKN020
TEMPO 2918/2922 17003G08MPS 3100 -SHSN BKN011 BKN017CB
FM292200 17006MPS 3100 -SN BR BKN011 BKN015
TEMPO 2922/0103 21006G11MPS 1700 SHSN BR BKN010 BKN015CB
TEMPO 0103/0112 20008G13MPS 0500 +SHSN BLSN BKN005 BKN013CB



MetMap, La meteo Aeronautica in un colpo d'occhio ! - Copyright ORBIFLY Dicembre 2007 - Disclaimer

ORBIFLY MET'MAP TEAM :

Programmazione e sviluppo : Alexandra Zaïnal
Concezione : Baudouin d'Aumeries
Aiuto per la programmazione : Marc-Olivier Méhu
Supporto tecnico e logistico : Manuel Goepfert
Aiuto per la traduzione : Arnaldo La Scala

Contatto : metmap@orbifly.com




FONTI E CREDITI :

   NOAA